Terminal Aerodrome Forecast
Issued by NWS

Home | Current Version | Previous Version | Text Only | Print | Product List | Glossary On
Versions: 1 2 3 4 5 6 7 8 9 10 11 12 13 14 15 16 17 18 19 20 21 22 23
000
FTUS44 KCRP 021923 AAC
TAFALI
TAF AMD
KALI 021923Z 0219/0318 14014G19KT P6SM VCSH SCT025 SCT040 SCT250
      TEMPO 0219/0220 VRB19G29KT 4SM TSRA SCT025CB SCT040
     FM022000 15017G21KT P6SM SCT035 SCT250
     FM030300 13010KT P6SM FEW015 FEW250
     FM030800 15006KT P6SM BKN015
     FM031500 15012G19KT P6SM BKN030=

USA.gov is the U.S. government's official web portal to all federal, state and local government web resources and services.